LGPZ/PVK METAR and TAF weather

Enter ICAO airport designator
Station Type Date Time Source
LGPZ METAR 2022/06/28 23:50 UTC NOAA

LGPZ 282350Z 00000KT CAVOK 25/24 Q1013


Station Type Date Time Source
LGPZ Decoded METAR 2022/06/28 23:50 UTC NOAA

Aktion Airport , Greece (LGPZ) 38-37N 020-46E 4M
Jun 28, 2022 - 07:50 PM EDT / 2022.06.28 2350 UTC
Wind: Calm:0
Visibility: greater than 7 mile(s):0
Temperature: 77 F (25 C)
Dew Point: 75 F (24 C)
Relative Humidity: 94%
Pressure (altimeter): 29.91 in. Hg (1013 hPa)
ob: LGPZ 282350Z 00000KT CAVOK 25/24 Q1013
cycle: 0

Station Type Date Time Source
LGPZ TAF 2022/06/28 18:13 UTC NOAA

TAF LGPZ 281700Z 2818/2918 28010KT 9999 FEW025
TEMPO 2818/2908 VRB05KT

Example: see airport list